Dallas, Texas
Traffic Map
Current Weather Conditions
Dallas, Texas
Broken Clouds
Broken Clouds
36°
Feels Like: 27°
Wind Chill: 27° Ceiling: 9000
Heat Index: 36° Visibility: 10mi
Dew Point: 15° Wind: 15mph
Humidity: 43% Direction: 360° (N)
Pressure: 30.61in Gusts: 25mph
Raw Report DataKDAL 082053Z 36013G22KT 10SM BKN090 BKN120 02/M09 A3061 RMK AO2 SLP369 VIRGA ALQDS T00221094 56013
Traffic Incident Summary
Active as of:
Severity:
Category:
InformationThere was an issue retrieving the traffic information for this location. Please try a different location or try again shortly.
Advertisements
Track Severe Weather on mobile